Time;durP1;ratioP1;P1;durP2;ratioP2;P2;SDS_P1;SDS_P2;PMS_P1;PMS_P2;Temp;Humidity;BMP_temperature;BMP_pressure;BME280_temperature;BME280_humidity;BME280_pressure;Samples;Min_cycle;Max_cycle;Signal;HPM_P1;HPM_P2
2022/07/22 00:02:09;;;;;;;7.93;6.40;;;;;;;;;;5043042;28;20434;-80
2022/07/22 00:04:36;;;;;;;11.70;7.50;;;;;;;;;;5041374;28;20413;-80
2022/07/22 00:07:02;;;;;;;10.82;6.43;;;;;;;;;;5043858;28;20444;-80
2022/07/22 00:09:29;;;;;;;10.98;8.10;;;;;;;;;;5041660;28;20937;-80
2022/07/22 00:11:55;;;;;;;10.13;7.70;;;;;;;;;;5041926;28;20433;-79
2022/07/22 00:14:22;;;;;;;10.32;8.23;;;;;;;;;;5042346;28;20470;-80
2022/07/22 00:16:48;;;;;;;10.05;8.20;;;;;;;;;;5047067;28;20437;-80
2022/07/22 00:19:16;;;;;;;13.45;8.35;;;;;;;;;;5042995;28;20436;-80
2022/07/22 00:21:42;;;;;;;12.43;8.60;;;;;;;;;;5043459;28;20431;-84
2022/07/22 00:24:08;;;;;;;11.73;7.80;;;;;;;;;;5045281;28;20438;-80
2022/07/22 00:26:35;;;;;;;13.00;8.48;;;;;;;;;;5042686;28;20439;-79
2022/07/22 00:29:01;;;;;;;13.68;8.23;;;;;;;;;;5044034;28;20419;-80
2022/07/22 00:31:27;;;;;;;12.27;7.32;;;;;;;;;;5042967;28;20429;-79
2022/07/22 00:33:54;;;;;;;13.00;7.88;;;;;;;;;;5042043;28;20816;-79
2022/07/22 00:36:21;;;;;;;12.63;7.57;;;;;;;;;;5038595;28;20894;-81
2022/07/22 00:38:48;;;;;;;15.33;7.63;;;;;;;;;;5042186;28;20442;-79
2022/07/22 00:41:14;;;;;;;13.40;6.80;;;;;;;;;;5041441;28;20423;-80
2022/07/22 00:43:51;;;;;;;11.15;7.05;;;;;;;;;;5039662;28;20438;-80
2022/07/22 00:46:17;;;;;;;13.15;7.57;;;;;;;;;;5042197;28;20423;-79
2022/07/22 00:48:44;;;;;;;10.85;6.45;;;;;;;;;;5041737;28;20430;-79
2022/07/22 00:51:10;;;;;;;11.50;6.50;;;;;;;;;;5042251;28;20428;-80
2022/07/22 00:53:38;;;;;;;12.55;6.40;;;;;;;;;;5040770;28;20434;-79
2022/07/22 00:56:04;;;;;;;11.85;5.70;;;;;;;;;;5041315;28;20438;-80
2022/07/22 00:58:31;;;;;;;7.88;5.75;;;;;;;;;;5041607;28;20448;-82
2022/07/22 01:00:57;;;;;;;7.60;5.20;;;;;;;;;;5041395;28;20429;-80
2022/07/22 01:03:23;;;;;;;12.00;5.50;;;;;;;;;;5041402;28;20433;-80
2022/07/22 01:05:51;;;;;;;10.32;5.75;;;;;;;;;;5039864;28;20530;-82
2022/07/22 01:08:17;;;;;;;6.40;5.15;;;;;;;;;;5043461;28;20429;-80
2022/07/22 01:10:45;;;;;;;8.90;5.43;;;;;;;;;;5041751;28;20429;-79
2022/07/22 01:13:11;;;;;;;10.85;5.13;;;;;;;;;;5043419;28;20440;-81
2022/07/22 01:15:37;;;;;;;8.88;4.95;;;;;;;;;;5043638;28;20425;-80
2022/07/22 01:18:04;;;;;;;8.65;5.25;;;;;;;;;;5043313;28;21045;-79
2022/07/22 01:20:32;;;;;;;10.07;4.80;;;;;;;;;;5042387;28;20433;-79
2022/07/22 01:22:58;;;;;;;5.95;4.25;;;;;;;;;;5042448;28;20433;-79
2022/07/22 01:25:24;;;;;;;7.75;4.32;;;;;;;;;;5042705;28;20438;-79
2022/07/22 01:27:51;;;;;;;9.97;4.50;;;;;;;;;;5041975;28;20429;-79
2022/07/22 01:30:17;;;;;;;9.73;4.75;;;;;;;;;;5042487;28;20509;-79
2022/07/22 01:32:44;;;;;;;7.18;4.13;;;;;;;;;;5043474;28;20441;-80
2022/07/22 01:35:10;;;;;;;6.60;4.70;;;;;;;;;;5039396;28;20431;-80
2022/07/22 01:37:38;;;;;;;11.73;4.20;;;;;;;;;;5042980;28;20421;-80
2022/07/22 01:40:05;;;;;;;6.80;3.95;;;;;;;;;;5041350;28;20417;-79
2022/07/22 01:42:31;;;;;;;7.55;4.00;;;;;;;;;;5041129;28;20435;-79
2022/07/22 01:44:57;;;;;;;7.20;3.90;;;;;;;;;;5041276;28;20427;-80
2022/07/22 01:47:24;;;;;;;8.35;3.83;;;;;;;;;;5040454;28;20437;-79
2022/07/22 01:49:50;;;;;;;7.32;3.60;;;;;;;;;;5040252;28;20422;-80
2022/07/22 01:52:17;;;;;;;6.30;3.45;;;;;;;;;;5042469;28;22131;-81
2022/07/22 01:54:45;;;;;;;6.18;3.70;;;;;;;;;;5041958;28;20430;-79
2022/07/22 01:57:11;;;;;;;6.07;3.20;;;;;;;;;;5039652;28;20426;-80
2022/07/22 01:59:38;;;;;;;9.95;3.80;;;;;;;;;;5041908;28;20415;-80
2022/07/22 02:02:04;;;;;;;6.55;3.65;;;;;;;;;;5042216;28;20458;-79
2022/07/22 02:04:32;;;;;;;5.10;3.30;;;;;;;;;;5042066;28;20800;-81
2022/07/22 02:06:59;;;;;;;7.47;3.85;;;;;;;;;;5042113;28;20440;-80
2022/07/22 02:09:26;;;;;;;5.90;3.50;;;;;;;;;;5040767;28;20429;-79
2022/07/22 02:11:54;;;;;;;9.70;3.30;;;;;;;;;;5041863;28;20429;-80
2022/07/22 02:14:21;;;;;;;9.27;4.68;;;;;;;;;;5037728;28;20425;-80
2022/07/22 02:16:47;;;;;;;10.88;5.10;;;;;;;;;;5034128;28;20814;-80
2022/07/22 02:19:13;;;;;;;10.13;5.88;;;;;;;;;;5040513;28;20423;-80
2022/07/22 02:21:40;;;;;;;10.50;5.83;;;;;;;;;;5042953;28;20437;-80
2022/07/22 02:24:06;;;;;;;9.13;5.70;;;;;;;;;;5040725;28;20437;-80
2022/07/22 02:26:33;;;;;;;11.65;6.60;;;;;;;;;;5043367;28;20431;-79
2022/07/22 02:29:01;;;;;;;13.27;7.00;;;;;;;;;;5042978;28;20432;-81
2022/07/22 02:31:27;;;;;;;13.52;8.10;;;;;;;;;;5042508;28;20434;-81
2022/07/22 02:33:53;;;;;;;18.38;8.48;;;;;;;;;;5042159;28;20437;-84
2022/07/22 02:36:20;;;;;;;17.38;9.25;;;;;;;;;;5040394;28;20434;-80
2022/07/22 02:38:46;;;;;;;14.55;8.80;;;;;;;;;;5022196;28;20438;-80
2022/07/22 02:41:12;;;;;;;14.25;7.85;;;;;;;;;;5039626;28;20427;-79
2022/07/22 02:43:39;;;;;;;11.10;7.00;;;;;;;;;;5026991;28;20423;-79
2022/07/22 02:46:07;;;;;;;11.48;8.02;;;;;;;;;;5040015;28;20433;-80
2022/07/22 02:48:34;;;;;;;14.33;7.30;;;;;;;;;;5021545;28;20421;-79
2022/07/22 02:51:00;;;;;;;14.57;8.20;;;;;;;;;;5041123;28;20427;-83
2022/07/22 02:53:26;;;;;;;14.45;8.18;;;;;;;;;;5043741;28;20444;-79
2022/07/22 02:55:53;;;;;;;18.70;9.30;;;;;;;;;;5041442;28;20433;-79
2022/07/22 02:58:19;;;;;;;15.63;8.70;;;;;;;;;;5041542;28;20433;-79
2022/07/22 03:00:47;;;;;;;10.48;7.82;;;;;;;;;;5041329;28;20423;-83
2022/07/22 03:03:14;;;;;;;12.38;7.32;;;;;;;;;;5040637;28;20441;-79
2022/07/22 03:05:41;;;;;;;13.07;6.80;;;;;;;;;;5040043;28;20470;-80
2022/07/22 03:08:07;;;;;;;14.85;7.32;;;;;;;;;;5042637;28;20427;-79
2022/07/22 03:10:33;;;;;;;11.02;6.47;;;;;;;;;;5041198;28;20954;-80
2022/07/22 03:13:00;;;;;;;12.38;6.85;;;;;;;;;;5040514;28;20433;-79
2022/07/22 03:15:26;;;;;;;13.25;5.85;;;;;;;;;;5038609;28;20427;-79
2022/07/22 03:17:52;;;;;;;10.70;5.28;;;;;;;;;;5040830;28;20439;-80
2022/07/22 03:20:20;;;;;;;10.90;4.63;;;;;;;;;;5040045;28;20425;-81
2022/07/22 03:22:46;;;;;;;11.45;5.05;;;;;;;;;;5038304;28;20423;-80
2022/07/22 03:25:13;;;;;;;10.55;4.80;;;;;;;;;;5037671;28;20953;-81
2022/07/22 03:27:39;;;;;;;12.57;4.20;;;;;;;;;;5041844;28;20438;-79
2022/07/22 03:30:06;;;;;;;8.03;4.47;;;;;;;;;;5040603;28;20418;-80
2022/07/22 03:32:33;;;;;;;10.80;4.68;;;;;;;;;;5043745;28;20515;-81
2022/07/22 03:34:59;;;;;;;8.30;4.43;;;;;;;;;;5041285;28;20942;-80
2022/07/22 03:37:27;;;;;;;11.63;5.25;;;;;;;;;;5020981;28;20435;-79
2022/07/22 03:39:53;;;;;;;14.32;6.03;;;;;;;;;;5040916;28;20435;-82
2022/07/22 03:42:19;;;;;;;10.65;5.05;;;;;;;;;;5040980;28;20432;-79
2022/07/22 03:44:46;;;;;;;12.65;5.90;;;;;;;;;;5039417;28;20433;-79
2022/07/22 03:47:13;;;;;;;15.13;6.28;;;;;;;;;;5044276;28;20429;-79
2022/07/22 03:49:39;;;;;;;11.60;5.10;;;;;;;;;;5041316;28;20438;-79
2022/07/22 03:52:05;;;;;;;14.77;5.15;;;;;;;;;;5043973;28;20445;-84
2022/07/22 03:54:33;;;;;;;11.77;5.50;;;;;;;;;;5041251;28;20410;-80
2022/07/22 03:56:59;;;;;;;8.75;5.00;;;;;;;;;;5041200;28;20433;-84
2022/07/22 03:59:25;;;;;;;10.50;5.38;;;;;;;;;;5039507;28;20413;-80
2022/07/22 04:01:52;;;;;;;11.05;4.78;;;;;;;;;;5043717;28;20429;-80
2022/07/22 04:04:19;;;;;;;11.13;5.68;;;;;;;;;;5041937;28;20416;-80
2022/07/22 04:06:45;;;;;;;12.03;5.40;;;;;;;;;;5040040;28;20433;-79
2022/07/22 04:09:12;;;;;;;9.55;5.63;;;;;;;;;;5039099;28;20432;-80
2022/07/22 04:11:39;;;;;;;13.35;5.30;;;;;;;;;;5042542;28;20441;-84
2022/07/22 04:14:06;;;;;;;13.43;5.80;;;;;;;;;;5040662;28;20433;-79
2022/07/22 04:16:32;;;;;;;12.07;5.35;;;;;;;;;;5039253;28;20423;-81
2022/07/22 04:18:58;;;;;;;15.03;5.83;;;;;;;;;;5043114;28;20425;-80
2022/07/22 04:21:25;;;;;;;10.48;5.32;;;;;;;;;;5041167;28;20431;-80
2022/07/22 04:23:53;;;;;;;14.02;6.15;;;;;;;;;;5023411;28;21045;-80
2022/07/22 04:26:20;;;;;;;16.40;7.88;;;;;;;;;;5039684;28;20425;-79
2022/07/22 04:28:47;;;;;;;14.32;7.20;;;;;;;;;;5041827;28;20432;-79
2022/07/22 04:31:14;;;;;;;13.13;5.93;;;;;;;;;;5038086;28;20425;-79
2022/07/22 04:33:40;;;;;;;8.75;5.40;;;;;;;;;;5040597;28;20470;-82
2022/07/22 04:36:07;;;;;;;14.85;6.00;;;;;;;;;;5038720;28;20436;-82
2022/07/22 04:38:33;;;;;;;13.35;5.40;;;;;;;;;;5039302;28;20432;-80
2022/07/22 04:40:59;;;;;;;12.88;6.00;;;;;;;;;;5037965;28;20427;-80
2022/07/22 04:43:26;;;;;;;10.33;5.53;;;;;;;;;;5041592;28;20425;-79
2022/07/22 04:45:53;;;;;;;9.93;5.28;;;;;;;;;;5046085;28;20438;-81
2022/07/22 04:48:20;;;;;;;13.67;5.50;;;;;;;;;;5046750;28;20408;-80
2022/07/22 04:50:46;;;;;;;9.70;4.63;;;;;;;;;;5046433;28;21073;-79
2022/07/22 04:53:12;;;;;;;13.63;4.68;;;;;;;;;;5044236;28;20426;-79
2022/07/22 04:55:39;;;;;;;9.60;4.73;;;;;;;;;;5042799;28;20436;-80
2022/07/22 04:58:07;;;;;;;13.90;4.40;;;;;;;;;;5046299;28;20775;-81
2022/07/22 05:00:33;;;;;;;8.93;5.00;;;;;;;;;;5044356;28;20464;-80
2022/07/22 05:03:01;;;;;;;9.55;4.47;;;;;;;;;;5028638;28;20430;-85
2022/07/22 05:05:27;;;;;;;8.33;4.00;;;;;;;;;;5046037;28;20926;-79
2022/07/22 05:07:53;;;;;;;8.80;4.10;;;;;;;;;;5045205;28;20454;-84
2022/07/22 05:10:20;;;;;;;9.80;4.30;;;;;;;;;;5046365;28;20425;-82
2022/07/22 05:12:48;;;;;;;12.30;4.25;;;;;;;;;;5044403;28;20440;-79
2022/07/22 05:15:14;;;;;;;7.65;4.20;;;;;;;;;;5047413;28;20428;-80
2022/07/22 05:17:41;;;;;;;9.25;3.80;;;;;;;;;;5045207;28;20419;-80
2022/07/22 05:20:10;;;;;;;8.93;4.20;;;;;;;;;;5047766;28;20421;-79
2022/07/22 05:22:36;;;;;;;9.48;4.47;;;;;;;;;;5045937;28;20425;-82
2022/07/22 05:25:02;;;;;;;10.95;4.45;;;;;;;;;;5049092;28;20429;-80
2022/07/22 05:27:29;;;;;;;9.32;4.22;;;;;;;;;;5045228;28;20938;-79
2022/07/22 05:29:55;;;;;;;10.43;4.10;;;;;;;;;;5045001;28;20428;-79
2022/07/22 05:32:21;;;;;;;14.55;4.82;;;;;;;;;;5041872;28;20440;-80
2022/07/22 05:34:48;;;;;;;9.63;4.22;;;;;;;;;;5025143;28;20413;-80
2022/07/22 05:37:16;;;;;;;11.15;4.10;;;;;;;;;;5044452;28;20432;-81
2022/07/22 05:39:43;;;;;;;9.48;4.18;;;;;;;;;;5043934;28;20417;-82
2022/07/22 05:42:09;;;;;;;17.80;4.70;;;;;;;;;;5044091;28;20425;-80
2022/07/22 05:44:38;;;;;;;12.30;4.75;;;;;;;;;;5044752;28;20423;-81
2022/07/22 05:47:04;;;;;;;13.60;4.20;;;;;;;;;;5044015;28;20441;-80
2022/07/22 05:49:31;;;;;;;8.50;4.07;;;;;;;;;;5042165;28;20410;-81
2022/07/22 05:52:00;;;;;;;10.40;3.83;;;;;;;;;;5043508;28;20449;-79
2022/07/22 05:54:27;;;;;;;10.65;4.18;;;;;;;;;;5041640;28;20900;-78
2022/07/22 05:56:54;;;;;;;8.05;4.20;;;;;;;;;;5040258;28;20434;-79
2022/07/22 05:59:20;;;;;;;10.95;4.28;;;;;;;;;;5038760;28;20414;-78
2022/07/22 06:01:47;;;;;;;15.35;5.00;;;;;;;;;;5041532;28;20439;-79
2022/07/22 06:04:13;;;;;;;9.60;3.80;;;;;;;;;;5043086;28;20427;-79
2022/07/22 06:06:40;;;;;;;10.05;4.30;;;;;;;;;;5039611;28;20421;-79
2022/07/22 06:09:06;;;;;;;7.95;3.90;;;;;;;;;;5041479;28;20440;-78
2022/07/22 06:11:34;;;;;;;10.93;4.40;;;;;;;;;;5040917;28;20423;-79
2022/07/22 06:14:00;;;;;;;10.03;4.03;;;;;;;;;;5042170;28;20429;-79
2022/07/22 06:16:27;;;;;;;8.70;3.63;;;;;;;;;;5040825;28;20482;-79
2022/07/22 06:18:53;;;;;;;9.27;3.60;;;;;;;;;;5038978;28;20434;-78
2022/07/22 06:21:19;;;;;;;9.40;3.80;;;;;;;;;;5041767;28;20431;-79
2022/07/22 06:23:45;;;;;;;11.43;3.77;;;;;;;;;;5042554;28;20509;-79
2022/07/22 06:26:12;;;;;;;9.80;3.53;;;;;;;;;;5042030;28;20426;-78
2022/07/22 06:28:39;;;;;;;9.20;3.90;;;;;;;;;;5041792;28;20429;-79
2022/07/22 06:31:06;;;;;;;9.93;3.83;;;;;;;;;;5041963;28;20945;-80
2022/07/22 06:33:33;;;;;;;9.70;3.80;;;;;;;;;;5041675;28;20441;-78
2022/07/22 06:36:00;;;;;;;7.65;3.70;;;;;;;;;;5039911;28;20445;-78
2022/07/22 06:38:27;;;;;;;10.33;3.60;;;;;;;;;;5040434;28;20428;-80
2022/07/22 06:40:53;;;;;;;8.40;3.80;;;;;;;;;;5040125;28;20434;-79
2022/07/22 06:43:19;;;;;;;7.60;3.97;;;;;;;;;;5043690;28;20821;-79
2022/07/22 06:45:47;;;;;;;9.45;3.95;;;;;;;;;;5040872;28;20434;-79
2022/07/22 06:48:13;;;;;;;8.75;3.78;;;;;;;;;;5038146;28;20415;-78
2022/07/22 06:50:40;;;;;;;9.38;3.80;;;;;;;;;;5037776;28;20554;-80
2022/07/22 06:53:06;;;;;;;9.15;3.92;;;;;;;;;;5040532;28;20440;-80
2022/07/22 06:55:33;;;;;;;9.48;4.05;;;;;;;;;;5041993;28;20424;-80
2022/07/22 06:57:59;;;;;;;8.07;3.90;;;;;;;;;;5038806;28;20429;-82
2022/07/22 07:00:26;;;;;;;7.03;3.90;;;;;;;;;;5040586;28;20429;-80
2022/07/22 07:02:54;;;;;;;9.30;3.67;;;;;;;;;;5044607;28;20531;-83
2022/07/22 07:05:21;;;;;;;10.32;3.00;;;;;;;;;;5023815;28;20471;-80
2022/07/22 07:07:47;;;;;;;9.80;3.78;;;;;;;;;;5042101;28;20434;-82
2022/07/22 07:10:15;;;;;;;6.97;3.60;;;;;;;;;;5043234;28;20415;-79
2022/07/22 07:12:43;;;;;;;5.80;3.35;;;;;;;;;;5044797;28;20501;-79
2022/07/22 07:15:09;;;;;;;12.82;3.85;;;;;;;;;;5039769;28;20437;-80
2022/07/22 07:17:36;;;;;;;7.95;3.30;;;;;;;;;;5042747;28;20426;-80
2022/07/22 07:20:04;;;;;;;7.35;3.15;;;;;;;;;;5042087;28;20429;-85
2022/07/22 07:22:30;;;;;;;8.68;2.85;;;;;;;;;;5041744;28;20811;-80
2022/07/22 07:24:57;;;;;;;6.68;3.17;;;;;;;;;;5044321;28;20430;-80
2022/07/22 07:27:24;;;;;;;7.32;3.33;;;;;;;;;;5044990;28;20419;-82
2022/07/22 07:29:50;;;;;;;8.55;3.60;;;;;;;;;;5042438;28;20936;-80
2022/07/22 07:32:16;;;;;;;7.73;2.80;;;;;;;;;;5041265;28;20452;-80
2022/07/22 07:34:43;;;;;;;6.93;2.30;;;;;;;;;;5040456;28;20826;-80
2022/07/22 07:37:12;;;;;;;8.82;3.17;;;;;;;;;;5043715;28;20431;-81
2022/07/22 07:39:38;;;;;;;7.35;3.05;;;;;;;;;;5041486;28;20419;-79
2022/07/22 07:42:04;;;;;;;7.45;2.58;;;;;;;;;;5045142;28;20452;-80
2022/07/22 07:44:31;;;;;;;5.53;3.10;;;;;;;;;;5043046;28;20409;-80
2022/07/22 07:46:57;;;;;;;8.77;3.17;;;;;;;;;;5046408;28;20469;-79
2022/07/22 07:49:24;;;;;;;9.10;3.30;;;;;;;;;;5042712;28;20922;-80
2022/07/22 07:51:50;;;;;;;4.88;2.35;;;;;;;;;;5042101;28;20488;-80
2022/07/22 07:54:19;;;;;;;6.73;2.97;;;;;;;;;;5039525;28;20421;-80
2022/07/22 07:56:45;;;;;;;7.47;3.00;;;;;;;;;;5023239;28;20417;-79
2022/07/22 07:59:11;;;;;;;5.87;3.10;;;;;;;;;;5043130;28;20436;-80
2022/07/22 08:01:38;;;;;;;6.75;2.83;;;;;;;;;;5042427;28;20426;-79
2022/07/22 08:04:04;;;;;;;7.88;3.10;;;;;;;;;;5041450;28;20440;-81
2022/07/22 08:06:31;;;;;;;8.85;3.38;;;;;;;;;;5025726;28;20427;-82
2022/07/22 08:08:57;;;;;;;7.47;3.10;;;;;;;;;;5041145;28;20430;-80
2022/07/22 08:11:25;;;;;;;6.15;3.45;;;;;;;;;;5041943;28;20403;-80
2022/07/22 08:13:51;;;;;;;6.70;3.60;;;;;;;;;;5042270;28;20433;-80
2022/07/22 08:16:17;;;;;;;9.27;3.22;;;;;;;;;;5036735;28;20425;-79
2022/07/22 08:18:44;;;;;;;8.88;3.22;;;;;;;;;;5043799;28;20437;-80
2022/07/22 08:21:10;;;;;;;8.55;3.42;;;;;;;;;;5047691;28;20434;-79
2022/07/22 08:23:37;;;;;;;5.35;3.00;;;;;;;;;;5044248;28;20802;-85
2022/07/22 08:26:03;;;;;;;10.07;3.25;;;;;;;;;;5045943;28;20417;-82
2022/07/22 08:28:31;;;;;;;6.05;3.15;;;;;;;;;;5045766;28;20424;-79
2022/07/22 08:30:57;;;;;;;5.30;2.97;;;;;;;;;;5047947;28;20419;-81
2022/07/22 08:33:23;;;;;;;7.65;3.40;;;;;;;;;;5047292;28;20438;-79
2022/07/22 08:35:50;;;;;;;8.33;3.53;;;;;;;;;;5028657;28;20423;-82
2022/07/22 08:38:16;;;;;;;5.80;3.47;;;;;;;;;;5047746;28;20466;-79
2022/07/22 08:40:43;;;;;;;9.77;3.58;;;;;;;;;;5043708;28;20923;-80
2022/07/22 08:43:09;;;;;;;5.45;2.72;;;;;;;;;;5047504;28;20438;-81
2022/07/22 08:45:37;;;;;;;8.98;3.35;;;;;;;;;;5045859;28;20410;-81
2022/07/22 08:48:05;;;;;;;7.47;3.80;;;;;;;;;;5046384;28;20416;-80
2022/07/22 08:50:32;;;;;;;10.73;4.10;;;;;;;;;;5046875;28;20433;-82
2022/07/22 08:52:58;;;;;;;7.13;3.40;;;;;;;;;;5050050;28;20429;-79
2022/07/22 08:55:25;;;;;;;6.80;3.17;;;;;;;;;;5045488;28;20419;-79
2022/07/22 08:57:52;;;;;;;6.53;3.10;;;;;;;;;;5049122;28;20416;-80
2022/07/22 09:00:20;;;;;;;6.65;3.20;;;;;;;;;;5046448;28;20982;-80
2022/07/22 09:02:48;;;;;;;9.17;3.10;;;;;;;;;;5044794;28;20436;-80
2022/07/22 09:05:16;;;;;;;7.45;3.40;;;;;;;;;;5045237;28;20429;-80
2022/07/22 09:07:45;;;;;;;9.25;3.55;;;;;;;;;;5043923;28;20463;-84
2022/07/22 09:10:12;;;;;;;4.20;2.90;;;;;;;;;;5042371;28;20948;-82
2022/07/22 09:12:51;;;;;;;9.32;3.40;;;;;;;;;;5045690;28;20432;-79
2022/07/22 09:15:25;;;;;;;7.15;3.30;;;;;;;;;;5025580;28;20417;-79
2022/07/22 09:17:52;;;;;;;6.68;3.58;;;;;;;;;;5042812;28;20438;-82
2022/07/22 09:20:19;;;;;;;4.53;3.13;;;;;;;;;;5041263;28;20453;-80
2022/07/22 09:22:46;;;;;;;7.63;3.50;;;;;;;;;;5044866;28;20426;-80
2022/07/22 09:25:21;;;;;;;6.83;3.70;;;;;;;;;;5042488;28;20430;-81
2022/07/22 09:27:47;;;;;;;9.50;3.70;;;;;;;;;;5044953;28;20480;-79
2022/07/22 09:30:14;;;;;;;5.57;3.08;;;;;;;;;;5042465;28;20422;-79
2022/07/22 09:32:41;;;;;;;7.65;3.42;;;;;;;;;;5044628;28;20859;-83
2022/07/22 09:35:10;;;;;;;9.55;3.80;;;;;;;;;;5042923;28;20438;-80
2022/07/22 09:37:36;;;;;;;5.20;2.60;;;;;;;;;;5045368;28;20475;-79
2022/07/22 09:40:16;;;;;;;7.27;3.50;;;;;;;;;;5043979;28;20960;-82
2022/07/22 09:42:46;;;;;;;7.85;3.95;;;;;;;;;;5043917;28;21034;-82
2022/07/22 09:45:13;;;;;;;12.17;3.73;;;;;;;;;;5042961;28;20427;-81
2022/07/22 09:47:41;;;;;;;7.65;3.10;;;;;;;;;;5041784;28;20846;-80
2022/07/22 09:50:15;;;;;;;7.20;3.40;;;;;;;;;;5042684;28;20510;-78
2022/07/22 09:52:42;;;;;;;8.13;2.90;;;;;;;;;;5044400;28;20432;-78
2022/07/22 09:55:09;;;;;;;8.10;3.50;;;;;;;;;;5043663;28;20804;-79
2022/07/22 09:57:35;;;;;;;7.28;3.65;;;;;;;;;;5042084;28;20467;-80
2022/07/22 10:00:02;;;;;;;10.00;3.80;;;;;;;;;;5041537;28;20427;-78
2022/07/22 10:02:29;;;;;;;4.05;3.08;;;;;;;;;;5041160;28;20428;-78
2022/07/22 10:04:56;;;;;;;6.75;3.10;;;;;;;;;;5040900;28;20461;-79
2022/07/22 10:07:26;;;;;;;7.53;3.10;;;;;;;;;;5041747;28;20811;-78
2022/07/22 10:09:53;;;;;;;5.63;2.70;;;;;;;;;;5041927;28;20427;-79
2022/07/22 10:12:19;;;;;;;5.43;2.35;;;;;;;;;;5042614;28;20522;-78
2022/07/22 10:14:46;;;;;;;4.70;2.20;;;;;;;;;;5041122;28;20430;-79
2022/07/22 10:17:13;;;;;;;4.97;2.28;;;;;;;;;;5043367;28;20888;-78
2022/07/22 10:19:39;;;;;;;5.67;2.90;;;;;;;;;;5039355;28;20438;-80
2022/07/22 10:22:26;;;;;;;5.70;2.40;;;;;;;;;;5041190;28;20470;-79
2022/07/22 10:25:01;;;;;;;5.50;2.67;;;;;;;;;;5040416;28;20423;-78
2022/07/22 10:27:42;;;;;;;6.72;2.75;;;;;;;;;;5041233;28;20433;-78
2022/07/22 10:30:10;;;;;;;4.18;2.70;;;;;;;;;;5042437;28;20427;-78
2022/07/22 10:32:36;;;;;;;8.30;2.80;;;;;;;;;;5045631;28;20936;-79
2022/07/22 10:35:21;;;;;;;7.47;2.40;;;;;;;;;;5043172;28;20965;-78
2022/07/22 10:37:49;;;;;;;6.93;3.10;;;;;;;;;;5038772;28;20433;-78
2022/07/22 10:40:19;;;;;;;8.03;2.93;;;;;;;;;;5040223;28;20440;-78
2022/07/22 10:43:06;;;;;;;6.45;3.08;;;;;;;;;;5041432;28;20515;-78
2022/07/22 10:45:33;;;;;;;6.07;2.50;;;;;;;;;;5041175;28;20506;-79
2022/07/22 10:48:01;;;;;;;5.07;3.10;;;;;;;;;;5039886;28;20433;-79
2022/07/22 10:50:57;;;;;;;3.88;2.50;;;;;;;;;;5022195;28;20421;-79
2022/07/22 10:53:25;;;;;;;8.00;2.90;;;;;;;;;;4960911;28;20443;-78
2022/07/22 10:56:04;;;;;;;6.30;2.80;;;;;;;;;;5008101;28;20438;-82
2022/07/22 10:58:41;;;;;;;6.78;2.60;;;;;;;;;;5039396;28;20613;-79
2022/07/22 11:01:08;;;;;;;5.30;2.60;;;;;;;;;;5029317;28;20446;-79
2022/07/22 11:03:35;;;;;;;8.77;2.75;;;;;;;;;;5042263;28;20429;-78
2022/07/22 11:06:13;;;;;;;5.07;2.60;;;;;;;;;;5039031;28;20432;-79
2022/07/22 11:08:39;;;;;;;4.75;2.65;;;;;;;;;;5021699;28;20441;-79
2022/07/22 11:11:07;;;;;;;6.25;2.60;;;;;;;;;;5038335;28;20805;-81
2022/07/22 11:13:34;;;;;;;4.40;2.70;;;;;;;;;;5038835;28;20425;-85
2022/07/22 11:16:14;;;;;;;4.38;2.20;;;;;;;;;;5040897;28;20428;-79
2022/07/22 11:18:51;;;;;;;6.35;2.60;;;;;;;;;;5038942;28;20436;-79
2022/07/22 11:21:18;;;;;;;6.07;2.55;;;;;;;;;;5039586;28;20429;-81
2022/07/22 11:23:45;;;;;;;8.20;4.00;;;;;;;;;;5039770;28;20437;-80
2022/07/22 11:26:14;;;;;;;5.53;2.60;;;;;;;;;;5039924;28;20427;-79
2022/07/22 11:28:41;;;;;;;6.75;3.05;;;;;;;;;;5039177;28;20426;-84
2022/07/22 11:31:07;;;;;;;6.47;2.73;;;;;;;;;;5037504;28;20422;-79
2022/07/22 11:33:33;;;;;;;6.03;3.47;;;;;;;;;;5041344;28;20940;-82
2022/07/22 11:36:04;;;;;;;5.57;3.10;;;;;;;;;;5041287;28;20431;-78
2022/07/22 11:38:40;;;;;;;5.60;2.72;;;;;;;;;;5039189;28;20429;-80
2022/07/22 11:41:07;;;;;;;4.35;2.35;;;;;;;;;;5039755;28;20429;-78
2022/07/22 11:43:39;;;;;;;6.13;2.70;;;;;;;;;;5037561;28;20454;-81
2022/07/22 11:46:06;;;;;;;8.68;2.80;;;;;;;;;;5038382;28;20536;-81
2022/07/22 11:48:32;;;;;;;3.90;2.72;;;;;;;;;;5034872;28;20431;-80
2022/07/22 11:51:00;;;;;;;5.85;2.85;;;;;;;;;;5039106;28;20432;-79
2022/07/22 11:53:26;;;;;;;4.10;2.70;;;;;;;;;;5037917;28;20438;-79
2022/07/22 11:55:56;;;;;;;4.95;2.97;;;;;;;;;;5037273;28;20432;-81
2022/07/22 11:58:33;;;;;;;6.22;3.10;;;;;;;;;;5038634;28;20426;-79
2022/07/22 12:01:02;;;;;;;5.50;2.80;;;;;;;;;;5039475;28;20428;-79
2022/07/22 12:03:28;;;;;;;6.07;2.70;;;;;;;;;;5036908;28;20440;-79
2022/07/22 12:05:55;;;;;;;4.10;2.40;;;;;;;;;;5019300;28;20496;-80
2022/07/22 12:08:21;;;;;;;7.35;2.90;;;;;;;;;;5038991;28;20439;-80
2022/07/22 12:10:47;;;;;;;7.13;3.45;;;;;;;;;;5038947;28;20429;-79
2022/07/22 12:13:14;;;;;;;8.20;2.50;;;;;;;;;;5038913;28;20424;-81
2022/07/22 12:15:40;;;;;;;6.57;2.60;;;;;;;;;;5018232;28;20840;-78
2022/07/22 12:18:19;;;;;;;3.60;2.10;;;;;;;;;;5038653;28;20945;-83
2022/07/22 12:20:45;;;;;;;6.07;3.10;;;;;;;;;;5038626;28;20514;-78
2022/07/22 12:23:12;;;;;;;4.18;2.90;;;;;;;;;;5037340;28;20436;-79
2022/07/22 12:25:50;;;;;;;5.53;3.20;;;;;;;;;;5036764;28;20417;-79
2022/07/22 12:28:16;;;;;;;5.95;2.30;;;;;;;;;;5036750;28;20450;-79
2022/07/22 12:30:43;;;;;;;4.97;2.60;;;;;;;;;;5041763;28;20436;-80
2022/07/22 12:33:13;;;;;;;6.40;2.50;;;;;;;;;;5043028;28;20429;-81
2022/07/22 12:35:41;;;;;;;5.25;2.30;;;;;;;;;;5041026;28;20432;-79
2022/07/22 12:38:08;;;;;;;6.18;2.42;;;;;;;;;;5041202;28;21264;-79
2022/07/22 12:40:34;;;;;;;3.67;2.53;;;;;;;;;;5042007;28;20430;-79
2022/07/22 12:43:01;;;;;;;6.43;2.70;;;;;;;;;;5020840;28;20441;-78
2022/07/22 12:45:28;;;;;;;4.90;2.60;;;;;;;;;;5037257;28;20436;-82
2022/07/22 12:47:57;;;;;;;5.40;2.47;;;;;;;;;;5037835;28;20446;-79
2022/07/22 12:50:25;;;;;;;6.35;2.70;;;;;;;;;;5039754;28;20447;-78
2022/07/22 12:52:53;;;;;;;6.80;2.55;;;;;;;;;;5041004;28;20439;-79
2022/07/22 12:55:19;;;;;;;4.63;2.10;;;;;;;;;;5037389;28;20427;-78
2022/07/22 12:57:47;;;;;;;5.17;2.50;;;;;;;;;;5040274;28;20409;-81
2022/07/22 13:00:16;;;;;;;6.45;2.58;;;;;;;;;;5038764;28;20795;-78
2022/07/22 13:02:43;;;;;;;5.78;3.03;;;;;;;;;;5038953;28;20434;-79
2022/07/22 13:05:09;;;;;;;5.85;2.70;;;;;;;;;;5044907;28;21038;-78
2022/07/22 13:07:35;;;;;;;5.37;2.30;;;;;;;;;;5044101;28;20425;-81
2022/07/22 13:10:03;;;;;;;5.70;2.63;;;;;;;;;;5041518;28;20429;-78
2022/07/22 13:12:30;;;;;;;4.23;2.63;;;;;;;;;;5042304;28;20799;-78
2022/07/22 13:14:56;;;;;;;5.80;3.63;;;;;;;;;;5041116;28;20434;-79
2022/07/22 13:17:22;;;;;;;5.75;3.15;;;;;;;;;;5040916;28;20437;-80
2022/07/22 13:19:49;;;;;;;5.22;3.60;;;;;;;;;;5043309;28;20420;-79
2022/07/22 13:22:15;;;;;;;5.55;3.00;;;;;;;;;;5040460;28;20433;-81
2022/07/22 13:24:43;;;;;;;4.72;2.80;;;;;;;;;;5040833;28;20429;-79
2022/07/22 13:27:11;;;;;;;8.93;3.00;;;;;;;;;;5041381;28;20432;-79
2022/07/22 13:29:37;;;;;;;4.30;2.50;;;;;;;;;;5042496;28;20442;-81
2022/07/22 13:32:04;;;;;;;8.90;2.40;;;;;;;;;;5042926;28;20429;-78
2022/07/22 13:34:30;;;;;;;4.57;2.00;;;;;;;;;;5041782;28;20776;-78
2022/07/22 13:36:56;;;;;;;3.47;2.47;;;;;;;;;;5028077;28;20431;-79
2022/07/22 13:39:23;;;;;;;3.97;2.20;;;;;;;;;;5043836;28;20405;-81
2022/07/22 13:41:50;;;;;;;5.77;2.40;;;;;;;;;;5042519;28;20467;-83
2022/07/22 13:44:18;;;;;;;5.60;2.50;;;;;;;;;;5044241;28;20437;-78
2022/07/22 13:46:45;;;;;;;5.30;2.20;;;;;;;;;;5042140;28;20468;-79
2022/07/22 13:49:11;;;;;;;5.30;2.20;;;;;;;;;;5041894;28;20444;-80
2022/07/22 13:51:38;;;;;;;4.43;2.50;;;;;;;;;;5043083;28;20475;-79
2022/07/22 13:54:04;;;;;;;4.15;2.00;;;;;;;;;;5039632;28;20422;-80
2022/07/22 13:56:31;;;;;;;7.95;2.60;;;;;;;;;;5047745;28;20435;-78
2022/07/22 13:58:58;;;;;;;4.18;2.22;;;;;;;;;;5045108;28;20427;-83
2022/07/22 14:01:26;;;;;;;6.55;2.40;;;;;;;;;;5042471;28;20844;-78
2022/07/22 14:03:52;;;;;;;7.43;2.50;;;;;;;;;;5043074;28;20516;-78
2022/07/22 14:06:18;;;;;;;6.20;2.47;;;;;;;;;;5043016;28;20438;-80
2022/07/22 14:08:45;;;;;;;6.38;2.35;;;;;;;;;;5043195;28;20433;-78
2022/07/22 14:11:11;;;;;;;8.07;2.47;;;;;;;;;;5042882;28;20441;-80
2022/07/22 14:13:38;;;;;;;5.22;2.65;;;;;;;;;;5026051;28;20929;-80
2022/07/22 14:18:46;;;;;;;5.50;2.35;;;;;;;;;;5041154;28;20424;-79
2022/07/22 14:21:12;;;;;;;5.43;2.30;;;;;;;;;;5043258;28;20432;-82
2022/07/22 14:23:38;;;;;;;5.40;2.25;;;;;;;;;;5042461;28;20425;-78
2022/07/22 14:26:05;;;;;;;4.90;2.20;;;;;;;;;;5041937;28;21018;-82
2022/07/22 14:28:32;;;;;;;4.13;2.20;;;;;;;;;;5042087;28;20818;-78
2022/07/22 14:30:58;;;;;;;4.80;2.23;;;;;;;;;;5043226;28;20428;-79
2022/07/22 14:33:25;;;;;;;5.85;2.60;;;;;;;;;;5040857;28;20429;-79
2022/07/22 14:35:52;;;;;;;7.93;2.60;;;;;;;;;;5040062;28;20421;-83
2022/07/22 14:38:19;;;;;;;4.87;2.47;;;;;;;;;;5042999;28;20430;-79
2022/07/22 14:40:45;;;;;;;5.68;2.65;;;;;;;;;;5040755;28;20436;-79
2022/07/22 14:43:12;;;;;;;6.05;2.40;;;;;;;;;;5040295;28;21369;-78